Time;durP1;ratioP1;P1;durP2;ratioP2;P2;SDS_P1;SDS_P2;PMS_P1;PMS_P2;Temp;Humidity;BMP_temperature;BMP_pressure;BME280_temperature;BME280_humidity;BME280_pressure;Samples;Min_cycle;Max_cycle;Signal;HPM_P1;HPM_P2
2021/07/20 00:00:12;;;;;;;1999.90;999.90;;;;;;;15.34;41.45;101449.72;4827686;29;98375;-71
2021/07/20 00:02:41;;;;;;;1999.90;999.90;;;;;;;15.37;41.24;101454.25;4829899;29;97198;-71
2021/07/20 00:05:11;;;;;;;1999.90;999.90;;;;;;;15.38;41.15;101451.56;4811563;29;97427;-71
2021/07/20 00:07:41;;;;;;;1999.90;999.90;;;;;;;15.39;40.72;101449.78;4825657;29;97712;-71
2021/07/20 00:10:11;;;;;;;1999.90;999.90;;;;;;;15.33;41.10;101449.72;4828953;29;98710;-71
2021/07/20 00:12:39;;;;;;;1999.90;999.90;;;;;;;15.27;41.22;101454.94;4826992;29;97443;-70
2021/07/20 00:15:08;;;;;;;1999.90;999.90;;;;;;;15.14;41.53;101449.44;4827683;29;97202;-71
2021/07/20 00:17:39;;;;;;;1999.90;999.90;;;;;;;15.10;41.71;101449.41;4857443;28;97341;-71
2021/07/20 00:20:08;;;;;;;1999.90;999.90;;;;;;;15.09;41.58;101451.19;4826612;29;98655;-71
2021/07/20 00:22:36;;;;;;;1999.90;999.90;;;;;;;15.06;41.48;101443.06;4825258;29;97576;-71
2021/07/20 00:25:06;;;;;;;1999.90;999.90;;;;;;;15.10;41.46;101446.72;4812083;29;97198;-70
2021/07/20 00:27:34;;;;;;;1999.90;999.90;;;;;;;15.08;41.97;101443.13;4828205;29;97674;-71
2021/07/20 00:30:02;;;;;;;1999.90;999.90;;;;;;;15.13;41.90;101441.38;4827399;29;99159;-70
2021/07/20 00:32:31;;;;;;;1999.90;999.90;;;;;;;15.17;41.75;101435.19;4821223;29;98103;-71
2021/07/20 00:34:59;;;;;;;1999.90;999.90;;;;;;;15.22;41.61;101437.91;4827116;29;97463;-72
2021/07/20 00:37:27;;;;;;;1999.90;999.90;;;;;;;15.24;41.31;101445.09;4826211;29;100017;-71
2021/07/20 00:39:54;;;;;;;1999.90;999.90;;;;;;;15.26;41.46;101438.00;4857528;28;97487;-71
2021/07/20 00:42:24;;;;;;;1999.90;999.90;;;;;;;15.27;41.40;101430.81;4841083;29;97433;-71
2021/07/20 00:44:52;;;;;;;1999.90;999.90;;;;;;;15.21;41.34;101447.72;4857616;28;98319;-71
2021/07/20 00:47:19;;;;;;;1999.90;999.90;;;;;;;15.13;41.52;101441.38;4857159;28;99088;-71
2021/07/20 00:49:48;;;;;;;1999.90;999.90;;;;;;;15.09;41.43;101440.44;4826521;29;100375;-72
2021/07/20 00:52:16;;;;;;;1999.90;999.90;;;;;;;15.07;41.68;101441.31;4827398;29;96982;-70
2021/07/20 00:54:45;;;;;;;1999.90;999.90;;;;;;;15.09;41.31;101443.13;4811327;29;97672;-71
2021/07/20 00:57:14;;;;;;;1999.90;999.90;;;;;;;15.07;41.45;101436.84;4840907;29;102531;-72
2021/07/20 00:59:44;;;;;;;1999.90;999.90;;;;;;;15.09;41.41;101442.22;4856251;28;97684;-70
2021/07/20 01:02:13;;;;;;;1999.90;999.90;;;;;;;15.12;41.58;101440.47;4830124;28;96869;-71
2021/07/20 01:04:41;;;;;;;1999.90;999.90;;;;;;;15.17;41.26;101442.31;4841427;29;97843;-71
2021/07/20 01:07:11;;;;;;;1999.90;999.90;;;;;;;15.12;41.74;101444.94;4824639;29;97981;-72
2021/07/20 01:09:42;;;;;;;1999.90;999.90;;;;;;;15.10;41.56;101441.38;4840012;29;98802;-71
2021/07/20 01:12:13;;;;;;;1999.90;999.90;;;;;;;15.07;41.65;101449.34;4855070;28;97106;-71
2021/07/20 01:14:48;;;;;;;1999.90;999.90;;;;;;;14.98;41.99;101447.44;4826376;29;96980;-71
2021/07/20 01:17:16;;;;;;;1999.90;999.90;;;;;;;14.91;42.18;101448.25;4825632;29;101182;-71
2021/07/20 01:19:51;;;;;;;1999.90;999.90;;;;;;;14.88;41.98;101447.31;4856724;28;98644;-71
2021/07/20 01:22:22;;;;;;;1999.90;999.90;;;;;;;14.89;42.17;101435.69;4825170;29;96927;-71
2021/07/20 01:24:53;;;;;;;1999.90;999.90;;;;;;;14.90;42.44;101442.88;4824686;29;97230;-71
2021/07/20 01:27:21;;;;;;;1999.90;999.90;;;;;;;14.92;42.52;101441.09;4824795;29;97818;-71
2021/07/20 01:29:51;;;;;;;1999.90;999.90;;;;;;;14.93;42.35;101443.81;4857216;28;98290;-71
2021/07/20 01:32:20;;;;;;;1999.90;999.90;;;;;;;14.93;42.61;101442.91;4825051;29;97531;-71
2021/07/20 01:34:50;;;;;;;1999.90;999.90;;;;;;;14.85;42.73;101444.56;4844231;29;97495;-71
2021/07/20 01:37:19;;;;;;;1999.90;999.90;;;;;;;14.77;42.86;101439.09;4827358;29;99632;-71
2021/07/20 01:39:49;;;;;;;1999.90;999.90;;;;;;;14.76;42.67;101436.41;4813113;29;100646;-72
2021/07/20 01:42:20;;;;;;;1999.90;999.90;;;;;;;14.71;42.84;101446.16;4859344;28;97441;-71
2021/07/20 01:44:48;;;;;;;1999.90;999.90;;;;;;;14.60;42.90;101450.44;4830794;29;97762;-71
2021/07/20 01:47:17;;;;;;;1999.90;999.90;;;;;;;14.57;43.06;101443.25;4835323;29;101784;-71
2021/07/20 01:49:46;;;;;;;1999.90;999.90;;;;;;;14.60;43.05;101443.31;4859647;28;97694;-70
2021/07/20 01:52:14;;;;;;;1999.90;999.90;;;;;;;14.57;43.04;101442.38;4828418;29;97702;-70
2021/07/20 01:54:43;;;;;;;1999.90;999.90;;;;;;;14.54;43.27;101448.53;4855475;28;98181;-71
2021/07/20 01:57:14;;;;;;;1999.90;999.90;;;;;;;14.53;43.14;101451.19;4839119;29;97204;-71
2021/07/20 02:00:03;;;;;;;1999.90;999.90;;;;;;;14.47;43.30;101452.00;4826294;29;98031;-70
2021/07/20 02:09:02;;;;;;;1999.90;999.90;;;;;;;14.69;42.72;101443.47;4793195;29;99356;-71
2021/07/20 02:11:34;;;;;;;1999.90;999.90;;;;;;;14.72;42.71;101447.94;4808019;29;98549;-71
2021/07/20 02:14:11;;;;;;;1999.90;999.90;;;;;;;14.76;42.53;101444.44;4823846;29;98654;-71
2021/07/20 02:17:07;;;;;;;1999.90;999.90;;;;;;;14.79;42.39;101441.81;4817167;29;97219;-71
2021/07/20 02:19:43;;;;;;;1999.90;999.90;;;;;;;14.76;42.29;101441.75;4808856;29;101171;-71
2021/07/20 02:22:24;;;;;;;1999.90;999.90;;;;;;;14.74;42.42;101438.16;4810922;29;99831;-70
2021/07/20 02:24:57;;;;;;;1999.90;999.90;;;;;;;14.72;42.68;101437.22;4808046;29;97878;-71
2021/07/20 02:27:26;;;;;;;1999.90;999.90;;;;;;;14.68;42.44;101446.13;4825980;29;97095;-70
2021/07/20 02:30:06;;;;;;;1999.90;999.90;;;;;;;14.58;42.62;101446.84;4840578;29;99097;-71
2021/07/20 02:32:36;;;;;;;1999.90;999.90;;;;;;;14.58;42.55;101446.84;4821626;29;97627;-72
2021/07/20 02:35:17;;;;;;;1999.90;999.90;;;;;;;14.48;42.95;101447.56;4824565;29;97782;-71
2021/07/20 02:37:45;;;;;;;1999.90;999.90;;;;;;;14.39;43.00;101439.38;4810923;29;96822;-70
2021/07/20 02:40:14;;;;;;;1999.90;999.90;;;;;;;14.30;43.10;101445.47;4855051;28;97762;-71
2021/07/20 02:42:44;;;;;;;1999.90;999.90;;;;;;;14.24;43.41;101439.13;4825155;29;99369;-71
2021/07/20 02:45:14;;;;;;;1999.90;999.90;;;;;;;14.17;43.47;101434.53;4826303;29;97537;-71
2021/07/20 02:47:46;;;;;;;1999.90;999.90;;;;;;;14.21;43.57;101441.75;4825886;29;97149;-71
2021/07/20 02:50:16;;;;;;;1999.90;999.90;;;;;;;14.28;43.52;101439.19;4806659;29;98997;-71
2021/07/20 02:52:48;;;;;;;1999.90;999.90;;;;;;;14.36;43.40;101441.97;4823609;29;98288;-71
2021/07/20 02:55:24;;;;;;;1999.90;999.90;;;;;;;14.42;43.36;101447.44;4825071;29;98417;-72
2021/07/20 02:57:53;;;;;;;1999.90;999.90;;;;;;;14.45;43.21;101443.03;4854826;28;97048;-71
2021/07/20 03:00:21;;;;;;;1999.90;999.90;;;;;;;14.51;43.26;101436.88;4823984;29;99292;-71
2021/07/20 03:03:00;;;;;;;1999.90;999.90;;;;;;;14.57;43.09;101442.38;4839395;28;97978;-71
2021/07/20 03:05:34;;;;;;;1999.90;999.90;;;;;;;14.61;43.18;101444.22;4836923;29;96884;-71
2021/07/20 03:08:05;;;;;;;1999.90;999.90;;;;;;;14.64;42.85;101445.19;4855315;28;96809;-72
2021/07/20 03:10:40;;;;;;;1999.90;999.90;;;;;;;14.66;42.97;101442.50;4839651;28;99353;-71
2021/07/20 03:13:13;;;;;;;1999.90;999.90;;;;;;;14.65;42.87;101449.63;4856688;28;101244;-71
2021/07/20 03:15:48;;;;;;;1999.90;999.90;;;;;;;14.53;43.22;101453.88;4858556;28;96963;-71
2021/07/20 03:18:25;;;;;;;1999.90;999.90;;;;;;;14.39;43.32;101450.97;4828011;29;96813;-71
2021/07/20 03:20:54;;;;;;;1999.90;999.90;;;;;;;14.29;43.59;101450.81;4859166;28;97676;-71
2021/07/20 03:23:22;;;;;;;1999.90;999.90;;;;;;;14.31;43.74;101443.69;4827336;29;98044;-71
2021/07/20 03:25:52;;;;;;;1999.90;999.90;;;;;;;14.30;43.80;101449.94;4857386;28;97073;-71
2021/07/20 03:28:21;;;;;;;1999.90;999.90;;;;;;;14.26;43.89;101446.31;4829531;28;97026;-71
2021/07/20 03:30:49;;;;;;;1999.90;999.90;;;;;;;14.29;43.78;101448.13;4810169;29;101678;-72
2021/07/20 03:33:21;;;;;;;1999.90;999.90;;;;;;;14.27;43.78;101444.50;4827940;29;99423;-71
2021/07/20 03:35:57;;;;;;;1999.90;999.90;;;;;;;14.21;43.84;101447.13;4841098;29;96979;-71
2021/07/20 03:38:28;;;;;;;1999.90;999.90;;;;;;;14.12;44.09;101447.84;4843971;29;97656;-72
2021/07/20 03:41:02;;;;;;;1999.90;999.90;;;;;;;14.07;44.06;101452.22;4826722;29;98030;-71
2021/07/20 03:43:31;;;;;;;1999.90;999.90;;;;;;;14.06;44.07;101458.47;4806378;29;101208;-71
2021/07/20 03:46:01;;;;;;;1999.90;999.90;;;;;;;14.05;44.22;101454.88;4810001;29;97291;-71
2021/07/20 03:48:31;;;;;;;1999.90;999.90;;;;;;;13.97;44.32;101453.81;4826893;29;97699;-71
2021/07/20 03:51:18;;;;;;;1999.90;999.90;;;;;;;13.94;44.21;101458.22;4824761;29;99016;-71
2021/07/20 03:53:49;;;;;;;1999.90;999.90;;;;;;;14.02;44.35;101461.94;4843107;29;99524;-72
2021/07/20 03:56:17;;;;;;;1999.90;999.90;;;;;;;14.00;44.38;101456.56;4855974;28;97981;-71
2021/07/20 03:58:54;;;;;;;1999.90;999.90;;;;;;;14.02;44.41;101454.78;4855551;28;98058;-71
2021/07/20 04:01:28;;;;;;;1999.90;999.90;;;;;;;13.98;44.28;101466.34;4854743;28;97653;-72
2021/07/20 04:03:59;;;;;;;1999.90;999.90;;;;;;;14.04;44.39;101460.19;4830364;28;99187;-71
2021/07/20 04:06:27;;;;;;;1999.90;999.90;;;;;;;14.09;44.46;101462.09;4823314;29;98119;-71
2021/07/20 04:09:25;;;;;;;1999.90;999.90;;;;;;;14.17;44.39;101464.00;4823660;29;98208;-73
2021/07/20 04:12:13;;;;;;;1999.90;999.90;;;;;;;14.23;44.25;101451.59;4841150;29;97796;-71
2021/07/20 04:15:03;;;;;;;1999.90;999.90;;;;;;;14.30;44.22;101460.66;4854397;28;98669;-71
2021/07/20 04:17:38;;;;;;;1999.90;999.90;;;;;;;14.33;44.03;101458.00;4842083;29;96996;-71
2021/07/20 04:20:08;;;;;;;1999.90;999.90;;;;;;;14.28;44.00;101465.06;4856607;28;97906;-71
2021/07/20 04:22:38;;;;;;;1999.90;999.90;;;;;;;14.26;44.02;101456.13;4827975;29;99021;-71
2021/07/20 04:25:10;;;;;;;1999.90;999.90;;;;;;;14.20;44.34;101456.91;4855028;28;97906;-71
2021/07/20 04:27:41;;;;;;;1999.90;999.90;;;;;;;14.18;44.23;101474.72;4814564;29;98713;-71
2021/07/20 04:30:10;;;;;;;1999.90;999.90;;;;;;;14.11;44.50;101479.06;4841920;29;96852;-71
2021/07/20 04:32:42;;;;;;;1999.90;999.90;;;;;;;14.09;44.79;101470.13;4857796;28;99301;-71
2021/07/20 04:35:14;;;;;;;1999.90;999.90;;;;;;;14.14;44.63;101470.19;4810520;29;97532;-72
2021/07/20 04:37:51;;;;;;;1999.90;999.90;;;;;;;14.19;44.46;101465.81;4822932;29;96996;-72
2021/07/20 04:40:20;;;;;;;1999.90;999.90;;;;;;;14.23;44.40;101474.78;4835629;28;96948;-71
2021/07/20 04:42:49;;;;;;;1999.90;999.90;;;;;;;14.15;44.67;101466.66;4825349;28;98045;-73
2021/07/20 04:45:18;;;;;;;1999.90;999.90;;;;;;;14.16;44.74;101465.75;4815144;29;98117;-72
2021/07/20 04:47:53;;;;;;;1999.90;999.90;;;;;;;14.24;44.63;101460.53;4799593;29;97086;-72
2021/07/20 04:50:42;;;;;;;1999.90;999.90;;;;;;;14.30;44.63;101468.69;4855539;28;97182;-71
2021/07/20 04:53:12;;;;;;;1999.90;999.90;;;;;;;14.34;44.19;101465.16;4840658;28;100117;-72
2021/07/20 04:55:44;;;;;;;1999.90;999.90;;;;;;;14.37;44.12;101466.09;4840431;28;100568;-71
2021/07/20 04:58:13;;;;;;;1999.90;999.90;;;;;;;14.39;44.05;101460.81;4851486;28;97331;-75
2021/07/20 05:00:43;;;;;;;1999.90;999.90;;;;;;;14.33;44.12;101463.38;4804735;29;99040;-71
2021/07/20 05:03:14;;;;;;;1999.90;999.90;;;;;;;14.26;44.22;101469.50;4840828;28;101318;-70
2021/07/20 05:05:43;;;;;;;1999.90;999.90;;;;;;;14.28;44.39;101478.47;4827741;29;97556;-70
2021/07/20 05:08:16;;;;;;;1999.90;999.90;;;;;;;14.31;44.34;101468.69;4840007;28;97750;-70
2021/07/20 05:10:50;;;;;;;1999.90;999.90;;;;;;;14.35;44.22;101458.94;4839942;29;99405;-71
2021/07/20 05:13:25;;;;;;;1999.90;999.90;;;;;;;14.39;44.43;101467.03;4826326;29;98491;-72
2021/07/20 05:15:57;;;;;;;1999.90;999.90;;;;;;;14.44;44.21;101464.44;4809073;29;100421;-71
2021/07/20 05:18:34;;;;;;;1999.90;999.90;;;;;;;14.47;44.02;101468.06;4841020;28;96954;-71
2021/07/20 05:21:05;;;;;;;1999.90;999.90;;;;;;;14.48;43.81;101474.34;4822210;29;98143;-71
2021/07/20 05:23:34;;;;;;;1999.90;999.90;;;;;;;14.50;43.78;101475.28;4819922;29;99603;-72
2021/07/20 05:26:24;;;;;;;1999.90;999.90;;;;;;;14.51;43.79;101474.38;4820447;29;98009;-71
2021/07/20 05:28:53;;;;;;;1999.90;999.90;;;;;;;14.53;44.00;101475.31;4817234;29;97517;-72
2021/07/20 05:31:21;;;;;;;1999.90;999.90;;;;;;;14.54;43.99;101483.34;4848753;28;97818;-72
2021/07/20 05:33:55;;;;;;;1999.90;999.90;;;;;;;14.55;44.08;101481.59;4850963;28;97694;-73
2021/07/20 05:36:24;;;;;;;1999.90;999.90;;;;;;;14.52;43.75;101478.84;4841448;29;99254;-74
2021/07/20 05:38:52;;;;;;;1999.90;999.90;;;;;;;14.43;43.98;101478.69;4827339;29;97047;-74
2021/07/20 05:41:41;;;;;;;1999.90;999.90;;;;;;;14.39;44.06;101485.78;4824843;29;97578;-71
2021/07/20 05:44:10;;;;;;;1999.90;999.90;;;;;;;14.37;43.90;101489.31;4820013;29;99097;-72
2021/07/20 05:46:39;;;;;;;1999.90;999.90;;;;;;;14.32;43.84;101489.22;4829731;28;98407;-72
2021/07/20 05:49:07;;;;;;;1999.90;999.90;;;;;;;14.27;44.18;101490.03;4840822;29;97923;-72
2021/07/20 05:51:37;;;;;;;1999.90;999.90;;;;;;;14.22;44.28;101481.03;4824321;29;98749;-72
2021/07/20 05:54:11;;;;;;;1999.90;999.90;;;;;;;14.20;44.38;101485.44;4855400;28;100243;-72
2021/07/20 05:56:55;;;;;;;1999.90;999.90;;;;;;;14.23;44.66;101490.84;4824268;29;97894;-71
2021/07/20 05:59:45;;;;;;;1999.90;999.90;;;;;;;14.23;44.35;101488.16;4838253;29;97390;-71
2021/07/20 06:02:39;;;;;;;1999.90;999.90;;;;;;;14.25;44.43;101492.69;4827900;29;96965;-71
2021/07/20 06:05:09;;;;;;;1999.90;999.90;;;;;;;14.29;44.46;101490.97;4825965;29;99100;-71
2021/07/20 06:07:38;;;;;;;1999.90;999.90;;;;;;;14.34;44.49;101498.19;4826875;29;97977;-71
2021/07/20 06:10:07;;;;;;;1999.90;999.90;;;;;;;14.41;44.27;101496.53;4825447;29;97455;-71
2021/07/20 06:12:39;;;;;;;1999.90;999.90;;;;;;;14.45;44.28;101501.97;4823147;29;98147;-71
2021/07/20 06:15:08;;;;;;;1999.90;999.90;;;;;;;14.48;44.14;101501.13;4825239;29;98968;-71
2021/07/20 06:17:36;;;;;;;1999.90;999.90;;;;;;;14.48;44.23;101507.34;4827379;29;98914;-71
2021/07/20 06:20:05;;;;;;;1999.90;999.90;;;;;;;14.49;44.05;101492.19;4823135;29;97115;-71
2021/07/20 06:22:35;;;;;;;1999.90;999.90;;;;;;;14.45;44.40;101499.28;4826776;29;97211;-71
2021/07/20 06:25:10;;;;;;;1999.90;999.90;;;;;;;14.44;44.25;101504.63;4809641;29;99228;-71
2021/07/20 06:27:38;;;;;;;1999.90;999.90;;;;;;;14.48;44.39;101503.81;4827191;29;98160;-71
2021/07/20 06:30:07;;;;;;;1999.90;999.90;;;;;;;14.52;44.34;101503.84;4825474;29;97344;-71
2021/07/20 06:32:35;;;;;;;1999.90;999.90;;;;;;;14.49;44.36;101503.81;4823766;29;97872;-71
2021/07/20 06:35:04;;;;;;;1999.90;999.90;;;;;;;14.52;43.98;101502.94;4810344;29;99527;-73
2021/07/20 06:37:32;;;;;;;1999.90;999.90;;;;;;;14.55;44.00;101511.06;4823860;29;100045;-72
2021/07/20 06:39:59;;;;;;;1999.90;999.90;;;;;;;14.58;44.02;101520.06;4824722;29;97076;-72
2021/07/20 06:42:29;;;;;;;1999.90;999.90;;;;;;;14.60;44.04;101518.31;4825044;29;98014;-72
2021/07/20 06:44:57;;;;;;;1999.90;999.90;;;;;;;14.64;44.09;101517.50;4824954;29;98186;-72
2021/07/20 06:47:24;;;;;;;1999.90;999.90;;;;;;;14.69;44.23;101521.16;4829313;29;97028;-72
2021/07/20 06:49:53;;;;;;;1999.90;999.90;;;;;;;14.73;44.11;101527.47;4830020;29;97568;-72
2021/07/20 06:52:20;;;;;;;1999.90;999.90;;;;;;;14.67;43.76;101525.59;4829728;29;97466;-72
2021/07/20 06:54:48;;;;;;;1999.90;999.90;;;;;;;14.64;44.02;101527.31;4826170;29;97752;-72
2021/07/20 06:57:17;;;;;;;1999.90;999.90;;;;;;;14.66;43.77;101523.75;4830193;29;97712;-72
2021/07/20 06:59:47;;;;;;;1999.90;999.90;;;;;;;14.73;43.80;101530.13;4858695;28;97691;-73
2021/07/20 07:02:19;;;;;;;1999.90;999.90;;;;;;;14.77;43.84;101529.31;4842346;29;97170;-72
2021/07/20 07:04:50;;;;;;;1999.90;999.90;;;;;;;14.77;43.17;101529.31;4827071;29;99739;-73
2021/07/20 07:07:19;;;;;;;1999.90;999.90;;;;;;;14.69;43.70;101531.88;4829794;29;97771;-72
2021/07/20 07:09:47;;;;;;;1999.90;999.90;;;;;;;14.54;43.71;101531.56;4828480;29;98470;-72
2021/07/20 07:12:16;;;;;;;1999.90;999.90;;;;;;;14.48;43.82;101535.94;4827537;29;96916;-72
2021/07/20 07:14:44;;;;;;;1999.90;999.90;;;;;;;14.47;43.61;101532.34;4826864;29;99180;-72
2021/07/20 07:17:13;;;;;;;1999.90;999.90;;;;;;;14.52;43.51;101535.09;4829593;29;97941;-72
2021/07/20 07:19:45;;;;;;;1999.90;999.90;;;;;;;14.57;43.52;101534.31;4858336;28;96889;-72
2021/07/20 07:22:14;;;;;;;1999.90;999.90;;;;;;;14.61;43.24;101540.66;4843691;29;96951;-73
2021/07/20 07:24:43;;;;;;;1999.90;999.90;;;;;;;14.64;43.22;101535.34;4828342;29;98115;-72
2021/07/20 07:27:13;;;;;;;1999.90;999.90;;;;;;;14.68;43.54;101543.44;4828720;29;97972;-72
2021/07/20 07:29:44;;;;;;;1999.90;999.90;;;;;;;14.70;43.36;101530.09;4827897;29;97585;-73
2021/07/20 07:32:11;;;;;;;1999.90;999.90;;;;;;;14.72;43.24;101541.72;4828392;29;97104;-72
2021/07/20 07:34:42;;;;;;;1999.90;999.90;;;;;;;14.74;43.32;101542.63;4825352;29;98598;-72
2021/07/20 07:37:11;;;;;;;1999.90;999.90;;;;;;;14.69;43.00;101541.69;4827483;29;98083;-73
2021/07/20 07:39:39;;;;;;;1999.90;999.90;;;;;;;14.64;43.06;101538.03;4829723;29;97140;-72
2021/07/20 07:42:08;;;;;;;1999.90;999.90;;;;;;;14.61;42.87;101541.53;4841170;29;97284;-73
2021/07/20 07:44:37;;;;;;;1999.90;999.90;;;;;;;14.59;42.91;101535.25;4825728;29;99495;-71
2021/07/20 07:47:05;;;;;;;1999.90;999.90;;;;;;;14.59;42.99;101548.66;4826527;29;98850;-72
2021/07/20 07:49:34;;;;;;;1999.90;999.90;;;;;;;14.56;42.79;101540.56;4828750;29;97213;-72
2021/07/20 07:52:04;;;;;;;1999.90;999.90;;;;;;;14.49;42.96;101540.41;4829591;29;96670;-72
2021/07/20 07:54:31;;;;;;;1999.90;999.90;;;;;;;14.43;43.04;101541.19;4826763;29;98743;-72
2021/07/20 07:56:59;;;;;;;1999.90;999.90;;;;;;;14.43;43.27;101546.56;4842298;29;98960;-72
2021/07/20 07:59:29;;;;;;;1999.90;999.90;;;;;;;14.48;42.99;101543.97;4825724;29;97709;-72
2021/07/20 08:01:57;;;;;;;1999.90;999.90;;;;;;;14.53;42.65;101542.25;4827472;29;98062;-72
2021/07/20 08:04:26;;;;;;;1999.90;999.90;;;;;;;14.56;42.75;101545.03;4857040;28;97975;-72
2021/07/20 08:06:55;;;;;;;1999.90;999.90;;;;;;;14.53;42.47;101543.19;4829194;29;98077;-71
2021/07/20 08:09:26;;;;;;;1999.90;999.90;;;;;;;14.58;42.41;101545.94;4826343;29;96883;-72
2021/07/20 08:11:56;;;;;;;1999.90;999.90;;;;;;;14.64;41.87;101546.97;4833959;28;97160;-71
2021/07/20 08:14:24;;;;;;;1999.90;999.90;;;;;;;14.70;41.61;101547.03;4827883;29;97532;-72
2021/07/20 08:16:57;;;;;;;1999.90;999.90;;;;;;;14.78;41.39;101549.84;4826108;29;99220;-71
2021/07/20 08:19:27;;;;;;;1999.90;999.90;;;;;;;14.84;41.17;101539.25;4828097;29;97593;-72
2021/07/20 08:21:58;;;;;;;1999.90;999.90;;;;;;;14.93;41.05;101542.06;4827211;29;96931;-71
2021/07/20 08:24:29;;;;;;;1999.90;999.90;;;;;;;14.97;40.98;101544.81;4825362;29;97510;-72
2021/07/20 08:27:01;;;;;;;1999.90;999.90;;;;;;;15.01;40.92;101543.97;4843077;29;99822;-71
2021/07/20 08:29:35;;;;;;;1999.90;999.90;;;;;;;15.07;41.12;101548.53;4825983;29;99255;-72
2021/07/20 08:32:07;;;;;;;1999.90;999.90;;;;;;;15.11;40.67;101553.06;4842566;29;97792;-72
2021/07/20 08:34:39;;;;;;;1999.90;999.90;;;;;;;15.14;40.98;101550.41;4825523;29;96988;-71
2021/07/20 08:37:29;;;;;;;1999.90;999.90;;;;;;;15.14;40.83;101545.97;4826754;29;97843;-71
2021/07/20 08:40:00;;;;;;;1999.90;999.90;;;;;;;15.16;40.67;101539.75;4825159;29;97200;-72
2021/07/20 08:42:35;;;;;;;1999.90;999.90;;;;;;;15.17;40.79;101545.13;4858598;28;97838;-71
2021/07/20 08:45:09;;;;;;;1999.90;999.90;;;;;;;15.17;40.49;101548.69;4825147;29;98498;-72
2021/07/20 08:47:53;;;;;;;1999.90;999.90;;;;;;;15.18;39.89;101546.91;4840787;29;98245;-72
2021/07/20 08:50:26;;;;;;;1999.90;999.90;;;;;;;15.23;39.58;101541.63;4827323;29;97831;-72
2021/07/20 08:53:04;;;;;;;1999.90;999.90;;;;;;;15.28;39.65;101542.59;4828951;29;97216;-72
2021/07/20 08:55:39;;;;;;;1999.90;999.90;;;;;;;15.30;38.90;101547.13;4827531;29;97307;-72
2021/07/20 08:58:14;;;;;;;1999.90;999.90;;;;;;;15.34;38.97;101538.22;4842446;29;98672;-72
2021/07/20 09:00:44;;;;;;;1999.90;999.90;;;;;;;15.38;38.93;101540.06;4825942;29;96968;-71
2021/07/20 09:03:22;;;;;;;1999.90;999.90;;;;;;;15.43;38.81;101541.03;4827356;29;97746;-72
2021/07/20 09:06:03;;;;;;;1999.90;999.90;;;;;;;15.49;38.58;101543.81;4832547;28;97847;-71
2021/07/20 09:08:36;;;;;;;1999.90;999.90;;;;;;;15.51;37.95;101539.34;4829012;29;97601;-71
2021/07/20 09:11:10;;;;;;;1999.90;999.90;;;;;;;15.54;37.66;101542.06;4826688;29;97756;-71
2021/07/20 09:13:40;;;;;;;1999.90;999.90;;;;;;;15.55;37.28;101545.66;4828353;29;97778;-71
2021/07/20 09:16:11;;;;;;;1999.90;999.90;;;;;;;15.58;37.03;101546.59;4822912;29;100185;-71
2021/07/20 09:18:46;;;;;;;1999.90;999.90;;;;;;;15.59;36.76;101548.41;4826512;29;97647;-71
2021/07/20 09:21:15;;;;;;;1999.90;999.90;;;;;;;15.63;37.01;101552.03;4827449;29;97204;-71
2021/07/20 09:23:47;;;;;;;1999.90;999.90;;;;;;;15.66;36.77;101552.97;4858025;28;97941;-72
2021/07/20 09:26:20;;;;;;;1999.90;999.90;;;;;;;15.66;36.91;101547.63;4823939;29;97918;-71
2021/07/20 09:28:51;;;;;;;1999.90;999.90;;;;;;;15.71;36.97;101545.88;4825980;29;97557;-71
2021/07/20 09:31:24;;;;;;;1999.90;999.90;;;;;;;15.71;36.36;101551.25;4828397;29;97140;-71
2021/07/20 09:33:58;;;;;;;1999.90;999.90;;;;;;;15.75;35.96;101552.19;4826310;29;98055;-71
2021/07/20 09:36:29;;;;;;;1999.90;999.90;;;;;;;15.75;36.21;101558.47;4855732;28;99525;-71
2021/07/20 09:39:27;;;;;;;1999.90;999.90;;;;;;;15.70;36.83;101560.16;4826658;29;98077;-71
2021/07/20 09:42:03;;;;;;;1999.90;999.90;;;;;;;15.72;36.87;101555.72;4802656;29;97438;-71
2021/07/20 09:44:40;;;;;;;1999.90;999.90;;;;;;;15.74;37.01;101562.00;4858473;28;97534;-71
2021/07/20 09:47:11;;;;;;;1999.90;999.90;;;;;;;15.73;36.86;101554.84;4827774;29;96954;-72
2021/07/20 09:49:46;;;;;;;1999.90;999.90;;;;;;;15.72;37.20;101555.72;4838610;29;98891;-72
2021/07/20 09:52:29;;;;;;;1999.90;999.90;;;;;;;15.75;36.43;101555.78;4835783;29;97870;-72
2021/07/20 09:55:11;;;;;;;1999.90;999.90;;;;;;;15.77;36.25;101553.09;4838511;29;98674;-72
2021/07/20 09:57:49;;;;;;;1999.90;999.90;;;;;;;15.81;35.89;101549.59;4864922;28;99803;-72
2021/07/20 10:00:18;;;;;;;1999.90;999.90;;;;;;;15.83;36.42;101551.38;4820005;29;99358;-72
2021/07/20 10:03:06;;;;;;;1999.90;999.90;;;;;;;15.85;36.41;101549.63;4827423;29;97045;-72
2021/07/20 10:05:39;;;;;;;1999.90;999.90;;;;;;;15.88;36.20;101551.44;4826441;29;97432;-71
2021/07/20 10:08:19;;;;;;;1999.90;999.90;;;;;;;15.91;36.34;101541.66;4824747;29;98920;-72
2021/07/20 10:10:53;;;;;;;1999.90;999.90;;;;;;;15.92;36.76;101546.13;4855834;28;99216;-71
2021/07/20 10:13:31;;;;;;;1999.90;999.90;;;;;;;15.88;36.45;101549.69;4824647;29;97040;-72
2021/07/20 10:16:08;;;;;;;1999.90;999.90;;;;;;;15.90;36.05;101547.88;4827151;28;98316;-72
2021/07/20 10:18:45;;;;;;;1999.90;999.90;;;;;;;15.90;36.00;101547.88;4854549;28;97901;-71
2021/07/20 10:21:15;;;;;;;1999.90;999.90;;;;;;;15.93;35.87;101545.25;4830275;29;97951;-72
2021/07/20 10:23:45;;;;;;;1999.90;999.90;;;;;;;15.95;36.28;101543.50;4829011;29;96964;-71
2021/07/20 10:26:23;;;;;;;1999.90;999.90;;;;;;;15.98;36.52;101539.91;4829236;29;97188;-71
2021/07/20 10:28:59;;;;;;;1999.90;999.90;;;;;;;16.02;35.90;101547.16;4858969;28;101115;-71
2021/07/20 10:31:30;;;;;;;1999.90;999.90;;;;;;;16.02;35.81;101548.06;4830364;29;99166;-72
2021/07/20 10:34:02;;;;;;;1999.90;999.90;;;;;;;16.06;35.76;101549.00;4828986;29;97722;-71
2021/07/20 10:36:36;;;;;;;1999.90;999.90;;;;;;;16.07;35.78;101545.41;4844109;29;97615;-71
2021/07/20 10:39:07;;;;;;;1999.90;999.90;;;;;;;16.08;35.34;101547.25;4828422;29;98224;-70
2021/07/20 10:41:38;;;;;;;1999.90;999.90;;;;;;;15.99;35.82;101548.00;4828819;29;97870;-72
2021/07/20 10:44:13;;;;;;;1999.90;999.90;;;;;;;15.90;35.53;101545.19;4827248;29;97894;-72
2021/07/20 10:46:42;;;;;;;1999.90;999.90;;;;;;;15.92;35.74;101547.94;4829464;29;96867;-72
2021/07/20 10:49:16;;;;;;;1999.90;999.90;;;;;;;15.95;35.86;101547.94;4828376;29;97755;-71
2021/07/20 10:51:44;;;;;;;1999.90;999.90;;;;;;;15.97;36.14;101541.72;4829783;29;97707;-71
2021/07/20 10:54:21;;;;;;;1999.90;999.90;;;;;;;16.01;36.06;101538.19;4857634;28;97578;-72
2021/07/20 10:56:55;;;;;;;1999.90;999.90;;;;;;;16.04;35.82;101535.56;4828484;29;97510;-72
2021/07/20 10:59:37;;;;;;;1999.90;999.90;;;;;;;16.07;36.01;101542.72;4828645;29;98993;-72
2021/07/20 11:02:08;;;;;;;1999.90;999.90;;;;;;;16.04;36.04;101535.56;4830504;29;97837;-72
2021/07/20 11:04:46;;;;;;;1999.90;999.90;;;;;;;16.03;35.90;101532.88;4860682;28;96886;-72
2021/07/20 11:07:20;;;;;;;1999.90;999.90;;;;;;;16.01;35.97;101530.16;4827782;29;97541;-71
2021/07/20 11:09:50;;;;;;;1999.90;999.90;;;;;;;15.98;36.21;101545.28;4829879;29;98168;-72
2021/07/20 11:12:19;;;;;;;1999.90;999.90;;;;;;;16.02;36.21;101547.16;4827169;29;98184;-71
2021/07/20 11:14:50;;;;;;;1999.90;999.90;;;;;;;16.04;36.62;101543.63;4829014;29;97790;-71